sensor_id;sensor_type;location;lat;lon;timestamp;temperature;humidity
33994;DHT22;20673;48.980;8.138;2022-07-29T00:01:00;19.90;99.90
33994;DHT22;20673;48.980;8.138;2022-07-29T00:03:26;19.80;99.90
33994;DHT22;20673;48.980;8.138;2022-07-29T00:05:53;19.60;99.90
33994;DHT22;20673;48.980;8.138;2022-07-29T00:08:19;19.50;99.90
33994;DHT22;20673;48.980;8.138;2022-07-29T00:10:45;19.40;99.90
33994;DHT22;20673;48.980;8.138;2022-07-29T00:13:12;19.40;99.90
33994;DHT22;20673;48.980;8.138;2022-07-29T00:15:38;19.50;99.90
33994;DHT22;20673;48.980;8.138;2022-07-29T00:18:04;19.50;99.90
33994;DHT22;20673;48.980;8.138;2022-07-29T00:20:30;19.50;99.90
33994;DHT22;20673;48.980;8.138;2022-07-29T00:22:57;19.40;99.90
33994;DHT22;20673;48.980;8.138;2022-07-29T00:25:23;19.30;99.90
33994;DHT22;20673;48.980;8.138;2022-07-29T00:27:49;19.30;99.90
33994;DHT22;20673;48.980;8.138;2022-07-29T00:30:15;19.20;99.90
33994;DHT22;20673;48.980;8.138;2022-07-29T00:32:42;19.20;99.90
33994;DHT22;20673;48.980;8.138;2022-07-29T00:35:08;19.10;99.90
33994;DHT22;20673;48.980;8.138;2022-07-29T00:37:53;19.00;99.90
33994;DHT22;20673;48.980;8.138;2022-07-29T00:40:20;19.00;99.90
33994;DHT22;20673;48.980;8.138;2022-07-29T00:42:48;18.90;99.90
33994;DHT22;20673;48.980;8.138;2022-07-29T00:45:16;18.80;99.90
33994;DHT22;20673;48.980;8.138;2022-07-29T00:47:43;18.70;99.90
33994;DHT22;20673;48.980;8.138;2022-07-29T00:50:11;18.70;99.90
33994;DHT22;20673;48.980;8.138;2022-07-29T00:52:39;18.60;99.90
33994;DHT22;20673;48.980;8.138;2022-07-29T00:55:09;18.70;99.90
33994;DHT22;20673;48.980;8.138;2022-07-29T00:57:37;18.50;99.90
33994;DHT22;20673;48.980;8.138;2022-07-29T01:00:07;18.40;99.90
33994;DHT22;20673;48.980;8.138;2022-07-29T01:02:36;18.40;99.90
33994;DHT22;20673;48.980;8.138;2022-07-29T01:05:04;18.50;99.90
33994;DHT22;20673;48.980;8.138;2022-07-29T01:07:37;18.40;99.90
33994;DHT22;20673;48.980;8.138;2022-07-29T01:10:07;18.40;99.90
33994;DHT22;20673;48.980;8.138;2022-07-29T01:12:36;18.30;99.90
33994;DHT22;20673;48.980;8.138;2022-07-29T01:15:05;18.30;99.90
33994;DHT22;20673;48.980;8.138;2022-07-29T01:17:43;18.20;99.90
33994;DHT22;20673;48.980;8.138;2022-07-29T01:25:58;18.00;99.90
33994;DHT22;20673;48.980;8.138;2022-07-29T01:28:47;18.10;99.90
33994;DHT22;20673;48.980;8.138;2022-07-29T01:31:20;18.00;99.90
33994;DHT22;20673;48.980;8.138;2022-07-29T01:33:53;18.00;99.90
33994;DHT22;20673;48.980;8.138;2022-07-29T01:39:19;17.90;99.90
33994;DHT22;20673;48.980;8.138;2022-07-29T01:42:05;17.90;99.90
33994;DHT22;20673;48.980;8.138;2022-07-29T01:44:35;17.80;99.90
33994;DHT22;20673;48.980;8.138;2022-07-29T01:47:19;17.70;99.90
33994;DHT22;20673;48.980;8.138;2022-07-29T01:49:50;17.70;99.90
33994;DHT22;20673;48.980;8.138;2022-07-29T01:55:10;17.60;99.90
33994;DHT22;20673;48.980;8.138;2022-07-29T01:57:44;17.70;99.90
33994;DHT22;20673;48.980;8.138;2022-07-29T02:00:13;17.60;99.90
33994;DHT22;20673;48.980;8.138;2022-07-29T02:02:42;17.50;99.90
33994;DHT22;20673;48.980;8.138;2022-07-29T02:05:12;17.40;99.90
33994;DHT22;20673;48.980;8.138;2022-07-29T02:07:42;17.40;99.90
33994;DHT22;20673;48.980;8.138;2022-07-29T02:10:11;17.40;99.90
33994;DHT22;20673;48.980;8.138;2022-07-29T02:12:39;17.30;99.90
33994;DHT22;20673;48.980;8.138;2022-07-29T02:15:09;17.30;99.90
33994;DHT22;20673;48.980;8.138;2022-07-29T02:17:53;17.30;99.90
33994;DHT22;20673;48.980;8.138;2022-07-29T02:20:19;17.30;99.90
33994;DHT22;20673;48.980;8.138;2022-07-29T02:22:46;17.20;99.90
33994;DHT22;20673;48.980;8.138;2022-07-29T02:25:16;17.30;99.90
33994;DHT22;20673;48.980;8.138;2022-07-29T02:27:44;17.30;99.90
33994;DHT22;20673;48.980;8.138;2022-07-29T02:30:12;17.20;99.90
33994;DHT22;20673;48.980;8.138;2022-07-29T02:32:40;17.20;99.90
33994;DHT22;20673;48.980;8.138;2022-07-29T02:35:08;17.20;99.90
33994;DHT22;20673;48.980;8.138;2022-07-29T02:37:36;17.10;99.90
33994;DHT22;20673;48.980;8.138;2022-07-29T02:40:04;17.20;99.90
33994;DHT22;20673;48.980;8.138;2022-07-29T02:42:35;17.20;99.90
33994;DHT22;20673;48.980;8.138;2022-07-29T02:45:04;17.20;99.90
33994;DHT22;20673;48.980;8.138;2022-07-29T02:47:47;17.20;99.90
33994;DHT22;20673;48.980;8.138;2022-07-29T02:50:29;17.10;99.90
33994;DHT22;20673;48.980;8.138;2022-07-29T02:53:08;17.00;99.90
33994;DHT22;20673;48.980;8.138;2022-07-29T02:55:52;16.90;99.90
33994;DHT22;20673;48.980;8.138;2022-07-29T02:58:30;16.90;99.90
33994;DHT22;20673;48.980;8.138;2022-07-29T03:01:00;16.80;99.90
33994;DHT22;20673;48.980;8.138;2022-07-29T03:03:31;16.80;99.90
33994;DHT22;20673;48.980;8.138;2022-07-29T03:06:01;16.70;99.90
33994;DHT22;20673;48.980;8.138;2022-07-29T03:08:29;16.60;99.90
33994;DHT22;20673;48.980;8.138;2022-07-29T03:10:57;16.50;99.90
33994;DHT22;20673;48.980;8.138;2022-07-29T03:13:27;16.60;99.90
33994;DHT22;20673;48.980;8.138;2022-07-29T03:15:55;16.50;99.90
33994;DHT22;20673;48.980;8.138;2022-07-29T03:18:23;16.50;99.90
33994;DHT22;20673;48.980;8.138;2022-07-29T03:20:51;16.50;99.90
33994;DHT22;20673;48.980;8.138;2022-07-29T03:23:22;16.30;99.90
33994;DHT22;20673;48.980;8.138;2022-07-29T03:25:50;16.30;99.90
33994;DHT22;20673;48.980;8.138;2022-07-29T03:28:16;16.30;99.90
33994;DHT22;20673;48.980;8.138;2022-07-29T03:30:43;16.20;99.90
33994;DHT22;20673;48.980;8.138;2022-07-29T03:33:09;16.20;99.90
33994;DHT22;20673;48.980;8.138;2022-07-29T03:35:35;16.10;99.90
33994;DHT22;20673;48.980;8.138;2022-07-29T03:38:02;16.00;99.90
33994;DHT22;20673;48.980;8.138;2022-07-29T03:40:52;16.00;99.90
33994;DHT22;20673;48.980;8.138;2022-07-29T03:43:21;15.90;99.90
33994;DHT22;20673;48.980;8.138;2022-07-29T03:45:52;15.80;99.90
33994;DHT22;20673;48.980;8.138;2022-07-29T03:48:21;15.90;99.90
33994;DHT22;20673;48.980;8.138;2022-07-29T03:50:50;15.90;99.90
33994;DHT22;20673;48.980;8.138;2022-07-29T03:53:17;15.90;99.90
33994;DHT22;20673;48.980;8.138;2022-07-29T03:55:46;16.00;99.90
33994;DHT22;20673;48.980;8.138;2022-07-29T03:58:16;15.90;99.90
33994;DHT22;20673;48.980;8.138;2022-07-29T04:00:44;15.90;99.90
33994;DHT22;20673;48.980;8.138;2022-07-29T04:03:12;15.80;99.90
33994;DHT22;20673;48.980;8.138;2022-07-29T04:05:38;15.70;99.90
33994;DHT22;20673;48.980;8.138;2022-07-29T04:08:05;15.70;99.90
33994;DHT22;20673;48.980;8.138;2022-07-29T04:10:31;15.70;99.90
33994;DHT22;20673;48.980;8.138;2022-07-29T04:12:59;15.60;99.90
33994;DHT22;20673;48.980;8.138;2022-07-29T04:15:25;15.50;99.90
33994;DHT22;20673;48.980;8.138;2022-07-29T04:17:53;15.50;99.90
33994;DHT22;20673;48.980;8.138;2022-07-29T04:20:19;15.60;99.90
33994;DHT22;20673;48.980;8.138;2022-07-29T04:22:45;15.60;99.90
33994;DHT22;20673;48.980;8.138;2022-07-29T04:25:11;15.70;99.90
33994;DHT22;20673;48.980;8.138;2022-07-29T04:27:37;15.50;99.90
33994;DHT22;20673;48.980;8.138;2022-07-29T04:30:06;15.50;99.90
33994;DHT22;20673;48.980;8.138;2022-07-29T04:32:32;15.50;99.90
33994;DHT22;20673;48.980;8.138;2022-07-29T04:34:59;15.60;99.90
33994;DHT22;20673;48.980;8.138;2022-07-29T04:37:25;15.60;99.90
33994;DHT22;20673;48.980;8.138;2022-07-29T04:39:51;15.50;99.90
33994;DHT22;20673;48.980;8.138;2022-07-29T04:42:17;15.50;99.90
33994;DHT22;20673;48.980;8.138;2022-07-29T04:44:43;15.50;99.90
33994;DHT22;20673;48.980;8.138;2022-07-29T04:47:09;15.50;99.90
33994;DHT22;20673;48.980;8.138;2022-07-29T04:49:38;15.60;99.90
33994;DHT22;20673;48.980;8.138;2022-07-29T04:52:05;15.70;99.90
33994;DHT22;20673;48.980;8.138;2022-07-29T04:54:31;15.80;99.90
33994;DHT22;20673;48.980;8.138;2022-07-29T04:56:57;15.80;99.90
33994;DHT22;20673;48.980;8.138;2022-07-29T04:59:23;15.80;99.90
33994;DHT22;20673;48.980;8.138;2022-07-29T05:01:50;15.90;99.90
33994;DHT22;20673;48.980;8.138;2022-07-29T05:04:16;16.00;99.90
33994;DHT22;20673;48.980;8.138;2022-07-29T05:06:43;16.10;99.90
33994;DHT22;20673;48.980;8.138;2022-07-29T05:09:09;16.20;99.90
33994;DHT22;20673;48.980;8.138;2022-07-29T05:11:35;16.30;99.90
33994;DHT22;20673;48.980;8.138;2022-07-29T05:14:01;16.40;99.90
33994;DHT22;20673;48.980;8.138;2022-07-29T05:16:27;16.50;99.90
33994;DHT22;20673;48.980;8.138;2022-07-29T05:18:53;16.60;99.90
33994;DHT22;20673;48.980;8.138;2022-07-29T05:21:19;16.70;99.90
33994;DHT22;20673;48.980;8.138;2022-07-29T05:23:46;16.90;99.90
33994;DHT22;20673;48.980;8.138;2022-07-29T05:26:12;17.10;99.90
33994;DHT22;20673;48.980;8.138;2022-07-29T05:28:38;17.20;99.90
33994;DHT22;20673;48.980;8.138;2022-07-29T05:31:04;17.40;99.90
33994;DHT22;20673;48.980;8.138;2022-07-29T05:33:30;17.50;99.90
33994;DHT22;20673;48.980;8.138;2022-07-29T05:35:57;17.70;99.90
33994;DHT22;20673;48.980;8.138;2022-07-29T05:38:24;17.80;99.90
33994;DHT22;20673;48.980;8.138;2022-07-29T05:40:50;18.00;99.90
33994;DHT22;20673;48.980;8.138;2022-07-29T05:43:16;18.20;99.90
33994;DHT22;20673;48.980;8.138;2022-07-29T05:45:42;18.30;99.90
33994;DHT22;20673;48.980;8.138;2022-07-29T05:48:08;18.60;99.90
33994;DHT22;20673;48.980;8.138;2022-07-29T05:50:35;18.70;99.90
33994;DHT22;20673;48.980;8.138;2022-07-29T05:53:01;18.90;99.90
33994;DHT22;20673;48.980;8.138;2022-07-29T05:55:27;19.00;99.90
33994;DHT22;20673;48.980;8.138;2022-07-29T05:57:53;19.20;99.90
33994;DHT22;20673;48.980;8.138;2022-07-29T06:00:19;19.40;99.90
33994;DHT22;20673;48.980;8.138;2022-07-29T06:02:45;19.70;99.90
33994;DHT22;20673;48.980;8.138;2022-07-29T06:05:11;19.80;99.90
33994;DHT22;20673;48.980;8.138;2022-07-29T06:07:38;20.00;99.90
33994;DHT22;20673;48.980;8.138;2022-07-29T06:10:04;20.00;99.90
33994;DHT22;20673;48.980;8.138;2022-07-29T06:12:31;20.20;99.90
33994;DHT22;20673;48.980;8.138;2022-07-29T06:14:57;20.20;99.90
33994;DHT22;20673;48.980;8.138;2022-07-29T06:17:23;20.30;99.90
33994;DHT22;20673;48.980;8.138;2022-07-29T06:19:49;20.40;99.90
33994;DHT22;20673;48.980;8.138;2022-07-29T06:22:16;20.40;99.90
33994;DHT22;20673;48.980;8.138;2022-07-29T06:24:43;20.60;99.90
33994;DHT22;20673;48.980;8.138;2022-07-29T06:27:11;20.70;99.90
33994;DHT22;20673;48.980;8.138;2022-07-29T06:29:38;20.80;99.90
33994;DHT22;20673;48.980;8.138;2022-07-29T06:32:05;20.90;99.90
33994;DHT22;20673;48.980;8.138;2022-07-29T06:34:32;21.00;99.90
33994;DHT22;20673;48.980;8.138;2022-07-29T06:36:58;21.20;99.90
33994;DHT22;20673;48.980;8.138;2022-07-29T06:39:24;21.40;99.90
33994;DHT22;20673;48.980;8.138;2022-07-29T06:41:50;21.60;99.90
33994;DHT22;20673;48.980;8.138;2022-07-29T06:44:17;21.70;99.90
33994;DHT22;20673;48.980;8.138;2022-07-29T06:46:44;21.90;99.90
33994;DHT22;20673;48.980;8.138;2022-07-29T06:49:10;22.00;99.90
33994;DHT22;20673;48.980;8.138;2022-07-29T06:51:37;22.10;99.90
33994;DHT22;20673;48.980;8.138;2022-07-29T06:54:04;22.10;99.90
33994;DHT22;20673;48.980;8.138;2022-07-29T06:56:31;22.20;99.90
33994;DHT22;20673;48.980;8.138;2022-07-29T06:58:58;22.20;99.90
33994;DHT22;20673;48.980;8.138;2022-07-29T07:01:24;22.30;99.90
33994;DHT22;20673;48.980;8.138;2022-07-29T07:03:50;22.30;99.90
33994;DHT22;20673;48.980;8.138;2022-07-29T07:06:16;22.50;99.90
33994;DHT22;20673;48.980;8.138;2022-07-29T07:08:43;22.60;99.90
33994;DHT22;20673;48.980;8.138;2022-07-29T07:11:09;22.80;99.90
33994;DHT22;20673;48.980;8.138;2022-07-29T07:13:35;23.00;99.90
33994;DHT22;20673;48.980;8.138;2022-07-29T07:16:02;23.00;99.90
33994;DHT22;20673;48.980;8.138;2022-07-29T07:18:28;23.20;99.90
33994;DHT22;20673;48.980;8.138;2022-07-29T07:20:56;23.40;99.90
33994;DHT22;20673;48.980;8.138;2022-07-29T07:23:23;23.60;99.90
33994;DHT22;20673;48.980;8.138;2022-07-29T07:25:49;23.60;99.90
33994;DHT22;20673;48.980;8.138;2022-07-29T07:28:15;23.60;99.90
33994;DHT22;20673;48.980;8.138;2022-07-29T07:30:41;23.80;99.90
33994;DHT22;20673;48.980;8.138;2022-07-29T07:33:08;23.90;99.90
33994;DHT22;20673;48.980;8.138;2022-07-29T07:35:35;24.00;99.90
33994;DHT22;20673;48.980;8.138;2022-07-29T07:38:01;24.10;99.90
33994;DHT22;20673;48.980;8.138;2022-07-29T07:40:27;24.20;99.90
33994;DHT22;20673;48.980;8.138;2022-07-29T07:42:54;24.30;99.90
33994;DHT22;20673;48.980;8.138;2022-07-29T07:45:20;24.40;99.90
33994;DHT22;20673;48.980;8.138;2022-07-29T07:47:46;24.40;99.90
33994;DHT22;20673;48.980;8.138;2022-07-29T07:50:12;24.50;99.90
33994;DHT22;20673;48.980;8.138;2022-07-29T07:52:50;24.60;99.90
33994;DHT22;20673;48.980;8.138;2022-07-29T07:55:18;24.70;99.90
33994;DHT22;20673;48.980;8.138;2022-07-29T07:57:45;24.80;99.90
33994;DHT22;20673;48.980;8.138;2022-07-29T08:00:13;24.70;99.90
33994;DHT22;20673;48.980;8.138;2022-07-29T08:02:41;24.50;99.90
33994;DHT22;20673;48.980;8.138;2022-07-29T08:05:11;24.20;99.90
33994;DHT22;20673;48.980;8.138;2022-07-29T08:07:40;24.10;99.90
33994;DHT22;20673;48.980;8.138;2022-07-29T08:10:07;24.20;99.90
33994;DHT22;20673;48.980;8.138;2022-07-29T08:12:34;24.30;99.90
33994;DHT22;20673;48.980;8.138;2022-07-29T08:15:00;24.50;99.90
33994;DHT22;20673;48.980;8.138;2022-07-29T08:17:26;24.70;99.90
33994;DHT22;20673;48.980;8.138;2022-07-29T08:19:53;25.00;99.90
33994;DHT22;20673;48.980;8.138;2022-07-29T08:22:20;25.20;99.90
33994;DHT22;20673;48.980;8.138;2022-07-29T08:24:46;25.20;99.90
33994;DHT22;20673;48.980;8.138;2022-07-29T08:27:14;25.40;99.90
33994;DHT22;20673;48.980;8.138;2022-07-29T08:29:40;25.70;99.90
33994;DHT22;20673;48.980;8.138;2022-07-29T08:32:06;25.60;99.90
33994;DHT22;20673;48.980;8.138;2022-07-29T08:34:32;25.50;99.90
33994;DHT22;20673;48.980;8.138;2022-07-29T08:36:59;25.50;99.90
33994;DHT22;20673;48.980;8.138;2022-07-29T08:39:25;25.40;99.90
33994;DHT22;20673;48.980;8.138;2022-07-29T08:41:52;25.40;99.90
33994;DHT22;20673;48.980;8.138;2022-07-29T08:44:19;25.10;99.90
33994;DHT22;20673;48.980;8.138;2022-07-29T08:46:48;25.00;99.90
33994;DHT22;20673;48.980;8.138;2022-07-29T08:49:15;24.90;99.90
33994;DHT22;20673;48.980;8.138;2022-07-29T08:51:43;25.10;99.90
33994;DHT22;20673;48.980;8.138;2022-07-29T08:54:10;25.30;99.90
33994;DHT22;20673;48.980;8.138;2022-07-29T08:56:38;25.50;99.90
33994;DHT22;20673;48.980;8.138;2022-07-29T08:59:05;25.40;99.90
33994;DHT22;20673;48.980;8.138;2022-07-29T09:01:35;25.70;99.90
33994;DHT22;20673;48.980;8.138;2022-07-29T09:04:06;25.90;99.90
33994;DHT22;20673;48.980;8.138;2022-07-29T09:06:39;25.90;99.90
33994;DHT22;20673;48.980;8.138;2022-07-29T09:09:07;26.10;99.90
33994;DHT22;20673;48.980;8.138;2022-07-29T09:11:34;26.10;99.90
33994;DHT22;20673;48.980;8.138;2022-07-29T09:14:01;26.10;99.90
33994;DHT22;20673;48.980;8.138;2022-07-29T09:16:45;26.10;99.90
33994;DHT22;20673;48.980;8.138;2022-07-29T09:19:30;26.10;99.90
33994;DHT22;20673;48.980;8.138;2022-07-29T09:22:04;26.20;99.90
33994;DHT22;20673;48.980;8.138;2022-07-29T09:24:40;26.50;99.90
33994;DHT22;20673;48.980;8.138;2022-07-29T09:29:47;26.80;99.90
33994;DHT22;20673;48.980;8.138;2022-07-29T09:32:15;26.90;99.90
33994;DHT22;20673;48.980;8.138;2022-07-29T09:34:41;27.10;99.90
33994;DHT22;20673;48.980;8.138;2022-07-29T09:37:07;27.20;99.90
33994;DHT22;20673;48.980;8.138;2022-07-29T09:39:39;27.20;99.90
33994;DHT22;20673;48.980;8.138;2022-07-29T09:42:06;27.40;99.90
33994;DHT22;20673;48.980;8.138;2022-07-29T09:44:44;27.50;99.90
33994;DHT22;20673;48.980;8.138;2022-07-29T09:47:14;27.60;99.90
33994;DHT22;20673;48.980;8.138;2022-07-29T09:49:54;27.80;99.90
33994;DHT22;20673;48.980;8.138;2022-07-29T09:52:26;27.90;99.90
33994;DHT22;20673;48.980;8.138;2022-07-29T09:55:08;28.00;99.90
33994;DHT22;20673;48.980;8.138;2022-07-29T09:57:35;28.10;99.90
33994;DHT22;20673;48.980;8.138;2022-07-29T10:00:05;28.10;99.90
33994;DHT22;20673;48.980;8.138;2022-07-29T10:02:35;28.10;99.90
33994;DHT22;20673;48.980;8.138;2022-07-29T10:05:15;28.00;99.90
33994;DHT22;20673;48.980;8.138;2022-07-29T10:07:49;28.30;99.90
33994;DHT22;20673;48.980;8.138;2022-07-29T10:12:55;28.90;99.90
33994;DHT22;20673;48.980;8.138;2022-07-29T10:15:24;29.00;99.90
33994;DHT22;20673;48.980;8.138;2022-07-29T10:17:53;29.20;99.90
33994;DHT22;20673;48.980;8.138;2022-07-29T10:20:25;29.00;99.90
33994;DHT22;20673;48.980;8.138;2022-07-29T10:22:53;29.10;99.90
33994;DHT22;20673;48.980;8.138;2022-07-29T10:25:22;28.70;99.90
33994;DHT22;20673;48.980;8.138;2022-07-29T10:27:50;29.00;99.90
33994;DHT22;20673;48.980;8.138;2022-07-29T10:30:17;28.70;99.90
33994;DHT22;20673;48.980;8.138;2022-07-29T10:36:10;29.50;99.90
33994;DHT22;20673;48.980;8.138;2022-07-29T10:42:33;30.10;99.90
33994;DHT22;20673;48.980;8.138;2022-07-29T10:44:33;30.00;99.90
33994;DHT22;20673;48.980;8.138;2022-07-29T10:47:00;29.90;99.90
33994;DHT22;20673;48.980;8.138;2022-07-29T10:49:27;29.70;99.90
33994;DHT22;20673;48.980;8.138;2022-07-29T10:52:08;29.90;99.90
33994;DHT22;20673;48.980;8.138;2022-07-29T10:57:30;29.60;99.90
33994;DHT22;20673;48.980;8.138;2022-07-29T11:02:43;29.80;99.90
33994;DHT22;20673;48.980;8.138;2022-07-29T11:05:12;29.90;99.90
33994;DHT22;20673;48.980;8.138;2022-07-29T11:10:39;29.90;99.90
33994;DHT22;20673;48.980;8.138;2022-07-29T11:13:05;30.00;99.90
33994;DHT22;20673;48.980;8.138;2022-07-29T11:15:56;30.00;99.90
33994;DHT22;20673;48.980;8.138;2022-07-29T11:18:21;29.80;99.90
33994;DHT22;20673;48.980;8.138;2022-07-29T11:20:49;29.50;99.90
33994;DHT22;20673;48.980;8.138;2022-07-29T11:23:21;29.40;99.90
33994;DHT22;20673;48.980;8.138;2022-07-29T11:31:35;30.20;99.90
33994;DHT22;20673;48.980;8.138;2022-07-29T11:45:07;30.70;99.90
33994;DHT22;20673;48.980;8.138;2022-07-29T11:47:47;30.80;99.90
33994;DHT22;20673;48.980;8.138;2022-07-29T11:50:25;30.90;99.90
33994;DHT22;20673;48.980;8.138;2022-07-29T11:52:56;30.80;99.90
33994;DHT22;20673;48.980;8.138;2022-07-29T11:55:23;30.50;99.90
33994;DHT22;20673;48.980;8.138;2022-07-29T11:57:57;30.40;99.90
33994;DHT22;20673;48.980;8.138;2022-07-29T12:03:08;30.40;99.90
33994;DHT22;20673;48.980;8.138;2022-07-29T12:10:48;30.10;99.90
33994;DHT22;20673;48.980;8.138;2022-07-29T12:13:18;29.90;99.90
33994;DHT22;20673;48.980;8.138;2022-07-29T12:15:56;29.70;99.90
33994;DHT22;20673;48.980;8.138;2022-07-29T12:18:24;29.70;99.90
33994;DHT22;20673;48.980;8.138;2022-07-29T12:20:58;29.50;99.90
33994;DHT22;20673;48.980;8.138;2022-07-29T12:23:27;29.30;99.90
33994;DHT22;20673;48.980;8.138;2022-07-29T12:25:54;29.10;99.90
33994;DHT22;20673;48.980;8.138;2022-07-29T12:28:20;29.10;99.90
33994;DHT22;20673;48.980;8.138;2022-07-29T12:30:49;29.00;99.90
33994;DHT22;20673;48.980;8.138;2022-07-29T12:33:22;29.00;99.90
33994;DHT22;20673;48.980;8.138;2022-07-29T12:35:59;29.10;99.90
33994;DHT22;20673;48.980;8.138;2022-07-29T12:38:27;29.00;99.90
33994;DHT22;20673;48.980;8.138;2022-07-29T12:40:54;29.20;99.90
33994;DHT22;20673;48.980;8.138;2022-07-29T12:43:22;29.30;99.90
33994;DHT22;20673;48.980;8.138;2022-07-29T12:45:54;29.20;99.90
33994;DHT22;20673;48.980;8.138;2022-07-29T12:48:39;29.00;99.90
33994;DHT22;20673;48.980;8.138;2022-07-29T12:51:07;29.10;99.90
33994;DHT22;20673;48.980;8.138;2022-07-29T12:53:35;29.30;99.90
33994;DHT22;20673;48.980;8.138;2022-07-29T12:56:04;29.40;99.90
33994;DHT22;20673;48.980;8.138;2022-07-29T12:58:36;29.60;99.90
33994;DHT22;20673;48.980;8.138;2022-07-29T13:01:12;29.50;99.90
33994;DHT22;20673;48.980;8.138;2022-07-29T13:11:50;29.10;99.90
33994;DHT22;20673;48.980;8.138;2022-07-29T13:14:32;28.90;99.90
33994;DHT22;20673;48.980;8.138;2022-07-29T13:17:14;28.80;99.90
33994;DHT22;20673;48.980;8.138;2022-07-29T13:19:51;28.60;99.90
33994;DHT22;20673;48.980;8.138;2022-07-29T13:22:21;28.60;99.90
33994;DHT22;20673;48.980;8.138;2022-07-29T13:25:00;28.80;99.90
33994;DHT22;20673;48.980;8.138;2022-07-29T13:27:31;28.80;99.90
33994;DHT22;20673;48.980;8.138;2022-07-29T13:30:00;29.00;99.90
33994;DHT22;20673;48.980;8.138;2022-07-29T13:32:28;29.20;99.90
33994;DHT22;20673;48.980;8.138;2022-07-29T13:34:56;29.40;99.90
33994;DHT22;20673;48.980;8.138;2022-07-29T13:37:23;29.30;99.90
33994;DHT22;20673;48.980;8.138;2022-07-29T13:39:49;29.60;99.90
33994;DHT22;20673;48.980;8.138;2022-07-29T13:42:15;29.50;99.90
33994;DHT22;20673;48.980;8.138;2022-07-29T13:44:42;29.50;99.90
33994;DHT22;20673;48.980;8.138;2022-07-29T13:47:08;29.40;99.70
33994;DHT22;20673;48.980;8.138;2022-07-29T13:49:35;29.30;99.30
33994;DHT22;20673;48.980;8.138;2022-07-29T13:52:02;29.30;99.70
33994;DHT22;20673;48.980;8.138;2022-07-29T13:54:29;29.20;99.90
33994;DHT22;20673;48.980;8.138;2022-07-29T13:56:55;29.10;99.90
33994;DHT22;20673;48.980;8.138;2022-07-29T13:59:21;29.00;99.70
33994;DHT22;20673;48.980;8.138;2022-07-29T14:01:47;29.00;99.90
33994;DHT22;20673;48.980;8.138;2022-07-29T14:04:13;29.00;99.90
33994;DHT22;20673;48.980;8.138;2022-07-29T14:06:40;29.00;99.90
33994;DHT22;20673;48.980;8.138;2022-07-29T14:09:06;29.00;99.30
33994;DHT22;20673;48.980;8.138;2022-07-29T14:11:34;29.20;99.90
33994;DHT22;20673;48.980;8.138;2022-07-29T14:14:02;29.40;99.40
33994;DHT22;20673;48.980;8.138;2022-07-29T14:16:28;29.60;99.20
33994;DHT22;20673;48.980;8.138;2022-07-29T14:18:54;29.60;98.40
33994;DHT22;20673;48.980;8.138;2022-07-29T14:21:20;29.70;99.70
33994;DHT22;20673;48.980;8.138;2022-07-29T14:23:47;29.70;97.90
33994;DHT22;20673;48.980;8.138;2022-07-29T14:26:13;29.70;98.50
33994;DHT22;20673;48.980;8.138;2022-07-29T14:28:39;29.90;98.70
33994;DHT22;20673;48.980;8.138;2022-07-29T14:31:06;29.90;97.30
33994;DHT22;20673;48.980;8.138;2022-07-29T14:33:33;29.80;98.00
33994;DHT22;20673;48.980;8.138;2022-07-29T14:35:59;29.90;97.60
33994;DHT22;20673;48.980;8.138;2022-07-29T14:38:25;30.00;96.70
33994;DHT22;20673;48.980;8.138;2022-07-29T14:40:51;30.00;96.30
33994;DHT22;20673;48.980;8.138;2022-07-29T14:43:18;30.00;96.50
33994;DHT22;20673;48.980;8.138;2022-07-29T14:45:44;30.20;96.90
33994;DHT22;20673;48.980;8.138;2022-07-29T14:48:11;30.40;96.90
33994;DHT22;20673;48.980;8.138;2022-07-29T14:50:37;30.40;95.60
33994;DHT22;20673;48.980;8.138;2022-07-29T14:53:04;30.70;95.50
33994;DHT22;20673;48.980;8.138;2022-07-29T14:55:30;30.50;95.10
33994;DHT22;20673;48.980;8.138;2022-07-29T14:57:56;30.70;95.40
33994;DHT22;20673;48.980;8.138;2022-07-29T15:00:25;30.80;94.10
33994;DHT22;20673;48.980;8.138;2022-07-29T15:02:51;30.60;93.60
33994;DHT22;20673;48.980;8.138;2022-07-29T15:05:17;30.60;93.60
33994;DHT22;20673;48.980;8.138;2022-07-29T15:07:44;30.80;93.00
33994;DHT22;20673;48.980;8.138;2022-07-29T15:10:10;31.20;93.60
33994;DHT22;20673;48.980;8.138;2022-07-29T15:12:36;31.60;92.40
33994;DHT22;20673;48.980;8.138;2022-07-29T15:15:03;31.80;93.20
33994;DHT22;20673;48.980;8.138;2022-07-29T15:17:29;31.70;92.40
33994;DHT22;20673;48.980;8.138;2022-07-29T15:19:55;31.40;91.60
33994;DHT22;20673;48.980;8.138;2022-07-29T15:22:21;31.10;91.40
33994;DHT22;20673;48.980;8.138;2022-07-29T15:24:48;31.00;91.70
33994;DHT22;20673;48.980;8.138;2022-07-29T15:27:14;31.00;92.80
33994;DHT22;20673;48.980;8.138;2022-07-29T15:29:41;31.20;92.30
33994;DHT22;20673;48.980;8.138;2022-07-29T15:32:08;31.20;91.90
33994;DHT22;20673;48.980;8.138;2022-07-29T15:34:35;31.20;92.40
33994;DHT22;20673;48.980;8.138;2022-07-29T15:37:04;31.10;91.50
33994;DHT22;20673;48.980;8.138;2022-07-29T15:39:30;31.00;91.10
33994;DHT22;20673;48.980;8.138;2022-07-29T15:41:57;31.00;91.50
33994;DHT22;20673;48.980;8.138;2022-07-29T15:44:25;30.80;91.00
33994;DHT22;20673;48.980;8.138;2022-07-29T15:46:52;30.70;90.70
33994;DHT22;20673;48.980;8.138;2022-07-29T15:49:36;30.50;92.30
33994;DHT22;20673;48.980;8.138;2022-07-29T15:52:06;30.80;90.70
33994;DHT22;20673;48.980;8.138;2022-07-29T15:54:36;31.10;90.10
33994;DHT22;20673;48.980;8.138;2022-07-29T15:57:04;31.30;91.00
33994;DHT22;20673;48.980;8.138;2022-07-29T15:59:31;31.20;89.70
33994;DHT22;20673;48.980;8.138;2022-07-29T16:01:58;31.30;88.50
33994;DHT22;20673;48.980;8.138;2022-07-29T16:04:25;31.50;88.50
33994;DHT22;20673;48.980;8.138;2022-07-29T16:06:52;31.70;86.70
33994;DHT22;20673;48.980;8.138;2022-07-29T16:09:19;31.80;85.50
33994;DHT22;20673;48.980;8.138;2022-07-29T16:11:45;32.00;85.90
33994;DHT22;20673;48.980;8.138;2022-07-29T16:14:13;32.10;86.40
33994;DHT22;20673;48.980;8.138;2022-07-29T16:16:39;32.10;84.00
33994;DHT22;20673;48.980;8.138;2022-07-29T16:19:06;32.20;81.30
33994;DHT22;20673;48.980;8.138;2022-07-29T16:21:35;32.20;80.10
33994;DHT22;20673;48.980;8.138;2022-07-29T16:24:02;32.50;79.80
33994;DHT22;20673;48.980;8.138;2022-07-29T16:26:30;32.70;79.60
33994;DHT22;20673;48.980;8.138;2022-07-29T16:28:56;32.60;78.30
33994;DHT22;20673;48.980;8.138;2022-07-29T16:31:22;32.70;79.80
33994;DHT22;20673;48.980;8.138;2022-07-29T16:33:49;32.60;78.00
33994;DHT22;20673;48.980;8.138;2022-07-29T16:36:16;32.60;77.60
33994;DHT22;20673;48.980;8.138;2022-07-29T16:38:42;32.50;75.50
33994;DHT22;20673;48.980;8.138;2022-07-29T16:41:09;32.10;74.90
33994;DHT22;20673;48.980;8.138;2022-07-29T16:43:35;32.30;75.30